createdAt,value
2022-09-15T00:00:28.134Z,99.08
2022-09-15T00:03:20.369Z,99.38
2022-09-15T00:05:50.984Z,99.76
2022-09-15T00:08:21.403Z,99.64
2022-09-15T00:10:52.753Z,100.00
2022-09-15T00:13:23.971Z,100.00
2022-09-15T00:15:54.474Z,100.00
2022-09-15T00:18:26.603Z,100.00
2022-09-15T00:20:56.624Z,100.00
2022-09-15T00:23:27.171Z,100.00
2022-09-15T00:25:57.131Z,100.00
2022-09-15T00:28:27.221Z,100.00
2022-09-15T00:30:57.853Z,100.00
2022-09-15T00:33:29.455Z,100.00
2022-09-15T00:36:02.733Z,100.00
2022-09-15T00:38:33.684Z,100.00
2022-09-15T00:41:05.142Z,100.00
2022-09-15T00:43:50.862Z,100.00
2022-09-15T00:46:24.100Z,100.00
2022-09-15T00:49:01.170Z,100.00
2022-09-15T00:51:37.192Z,100.00
2022-09-15T00:54:12.369Z,100.00
2022-09-15T00:56:44.522Z,100.00
2022-09-15T00:59:19.580Z,100.00
2022-09-15T01:01:54.452Z,100.00
2022-09-15T01:04:26.290Z,100.00
2022-09-15T01:07:00.567Z,100.00
2022-09-15T01:09:33.994Z,100.00
2022-09-15T01:12:04.593Z,100.00
2022-09-15T01:14:34.543Z,100.00
2022-09-15T01:17:11.373Z,100.00
2022-09-15T01:20:06.074Z,100.00
2022-09-15T01:22:44.134Z,100.00
2022-09-15T01:25:30.126Z,100.00
2022-09-15T01:28:36.595Z,100.00
2022-09-15T01:31:15.753Z,100.00
2022-09-15T01:33:50.394Z,100.00
2022-09-15T01:36:24.917Z,100.00
2022-09-15T01:39:03.807Z,100.00
2022-09-15T01:41:43.274Z,100.00
2022-09-15T01:44:17.611Z,100.00
2022-09-15T01:46:54.444Z,100.00
2022-09-15T01:49:27.707Z,100.00
2022-09-15T01:51:58.017Z,100.00
2022-09-15T01:54:35.554Z,100.00
2022-09-15T01:57:06.095Z,100.00
2022-09-15T01:59:36.604Z,100.00
2022-09-15T02:02:12.775Z,100.00
2022-09-15T02:04:47.926Z,100.00
2022-09-15T02:07:27.489Z,100.00
2022-09-15T02:10:03.679Z,100.00
2022-09-15T02:12:39.517Z,100.00
2022-09-15T02:15:15.309Z,100.00
2022-09-15T02:17:50.849Z,100.00
2022-09-15T02:20:30.183Z,100.00
2022-09-15T02:23:08.378Z,100.00
2022-09-15T02:25:43.777Z,100.00
2022-09-15T02:28:15.738Z,100.00
2022-09-15T02:30:48.455Z,100.00
2022-09-15T02:33:24.445Z,100.00
2022-09-15T02:35:55.627Z,100.00
2022-09-15T02:38:30.885Z,100.00
2022-09-15T02:41:01.673Z,100.00
2022-09-15T02:43:32.026Z,100.00
2022-09-15T02:46:02.456Z,100.00
2022-09-15T02:48:33.845Z,100.00
2022-09-15T02:51:04.149Z,100.00
2022-09-15T02:53:34.385Z,100.00
2022-09-15T02:56:04.967Z,100.00
2022-09-15T02:58:35.245Z,100.00
2022-09-15T03:01:06.485Z,100.00
2022-09-15T03:03:42.772Z,100.00
2022-09-15T03:06:21.425Z,100.00
2022-09-15T03:08:53.925Z,100.00
2022-09-15T03:11:27.028Z,100.00
2022-09-15T03:13:58.446Z,100.00
2022-09-15T03:16:29.538Z,100.00
2022-09-15T03:19:02.415Z,100.00
2022-09-15T03:21:32.654Z,100.00
2022-09-15T03:24:03.061Z,100.00
2022-09-15T03:26:33.163Z,100.00
2022-09-15T03:29:03.031Z,100.00
2022-09-15T03:31:33.435Z,100.00
2022-09-15T03:34:04.902Z,100.00
2022-09-15T03:36:35.562Z,100.00
2022-09-15T03:39:05.494Z,100.00
2022-09-15T03:41:35.541Z,100.00
2022-09-15T03:44:06.292Z,100.00
2022-09-15T03:46:36.448Z,100.00
2022-09-15T03:49:08.392Z,100.00
2022-09-15T03:51:38.371Z,100.00
2022-09-15T03:54:08.901Z,100.00
2022-09-15T03:56:38.882Z,100.00
2022-09-15T03:59:10.069Z,100.00
2022-09-15T04:01:40.334Z,100.00
2022-09-15T04:04:12.112Z,100.00
2022-09-15T04:06:42.281Z,100.00
2022-09-15T04:09:12.513Z,100.00
2022-09-15T04:11:42.986Z,100.00
2022-09-15T04:14:13.374Z,100.00
2022-09-15T04:16:43.397Z,100.00
2022-09-15T04:19:14.860Z,100.00
2022-09-15T04:21:46.013Z,100.00
2022-09-15T04:24:16.313Z,100.00
2022-09-15T04:26:46.534Z,100.00
2022-09-15T04:29:17.935Z,100.00
2022-09-15T04:31:48.968Z,100.00
2022-09-15T04:34:20.472Z,100.00
2022-09-15T04:36:50.622Z,100.00
2022-09-15T04:39:20.888Z,100.00
2022-09-15T04:41:51.326Z,100.00
2022-09-15T04:44:21.386Z,100.00
2022-09-15T04:46:51.398Z,100.00
2022-09-15T04:49:23.258Z,100.00
2022-09-15T04:51:54.027Z,100.00
2022-09-15T04:54:24.687Z,100.00
2022-09-15T04:56:54.574Z,100.00
2022-09-15T04:59:27.958Z,100.00
2022-09-15T05:01:58.128Z,100.00
2022-09-15T05:04:29.979Z,100.00
2022-09-15T05:07:00.562Z,100.00
2022-09-15T05:09:31.357Z,100.00
2022-09-15T05:12:01.607Z,100.00
2022-09-15T05:14:31.618Z,100.00
2022-09-15T05:17:01.576Z,100.00
2022-09-15T05:19:33.906Z,100.00
2022-09-15T05:22:03.933Z,100.00
2022-09-15T05:24:36.874Z,100.00
2022-09-15T05:27:07.321Z,100.00
2022-09-15T05:29:37.463Z,100.00
2022-09-15T05:32:07.741Z,100.00
2022-09-15T05:34:40.180Z,100.00
2022-09-15T05:37:10.583Z,100.00
2022-09-15T05:39:41.394Z,100.00
2022-09-15T05:42:13.684Z,100.00
2022-09-15T05:44:44.021Z,100.00
2022-09-15T05:47:13.993Z,100.00
2022-09-15T05:49:45.559Z,100.00
2022-09-15T05:52:15.716Z,100.00
2022-09-15T05:54:46.192Z,100.00
2022-09-15T05:57:16.764Z,100.00
2022-09-15T05:59:46.694Z,100.00
2022-09-15T06:02:16.937Z,100.00
2022-09-15T06:04:48.475Z,100.00
2022-09-15T06:07:19.544Z,100.00
2022-09-15T06:09:49.523Z,100.00
2022-09-15T06:12:19.763Z,100.00
2022-09-15T06:14:51.254Z,100.00
2022-09-15T06:17:22.549Z,100.00
2022-09-15T06:19:53.948Z,100.00
2022-09-15T06:22:24.387Z,100.00
2022-09-15T06:24:54.448Z,100.00
2022-09-15T06:27:24.457Z,100.00
2022-09-15T06:29:55.215Z,100.00
2022-09-15T06:32:25.437Z,100.00
2022-09-15T06:34:57.427Z,100.00
2022-09-15T06:37:27.499Z,100.00
2022-09-15T06:39:57.861Z,100.00
2022-09-15T06:42:27.778Z,100.00
2022-09-15T06:44:58.596Z,100.00
2022-09-15T06:47:34.155Z,100.00
2022-09-15T06:50:06.535Z,100.00
2022-09-15T06:52:36.747Z,100.00
2022-09-15T06:55:07.968Z,100.00
2022-09-15T06:57:38.135Z,100.00
2022-09-15T07:00:10.214Z,100.00
2022-09-15T07:02:40.480Z,99.75
2022-09-15T07:05:12.499Z,97.92
2022-09-15T07:07:42.412Z,97.49
2022-09-15T07:10:12.857Z,97.31
2022-09-15T07:12:42.817Z,96.52
2022-09-15T07:15:13.498Z,95.51
2022-09-15T07:17:43.567Z,94.99
2022-09-15T07:20:15.135Z,92.97
2022-09-15T07:22:45.667Z,89.81
2022-09-15T07:25:15.650Z,83.72
2022-09-15T07:27:45.958Z,84.16
2022-09-15T07:30:16.586Z,81.76
2022-09-15T07:32:46.719Z,81.83
2022-09-15T07:35:19.018Z,79.81
2022-09-15T07:37:49.068Z,79.07
2022-09-15T07:40:19.598Z,79.62
2022-09-15T07:42:49.530Z,79.59
2022-09-15T07:45:19.574Z,81.36
2022-09-15T07:47:49.931Z,80.88
2022-09-15T07:50:21.401Z,79.86
2022-09-15T07:52:51.591Z,78.32
2022-09-15T07:55:21.618Z,74.91
2022-09-15T07:58:00.126Z,72.82
2022-09-15T08:00:30.569Z,72.58
2022-09-15T08:03:00.966Z,73.39
2022-09-15T08:05:36.253Z,75.36
2022-09-15T08:08:09.448Z,78.20
2022-09-15T08:10:41.596Z,79.39
2022-09-15T08:13:11.866Z,80.23
2022-09-15T08:15:41.844Z,81.06
2022-09-15T08:18:12.358Z,80.69
2022-09-15T08:20:44.628Z,80.12
2022-09-15T08:23:15.089Z,82.51
2022-09-15T08:25:45.533Z,79.79
2022-09-15T08:28:15.668Z,80.80
2022-09-15T08:30:45.597Z,80.83
2022-09-15T08:33:15.818Z,80.98
2022-09-15T08:35:47.151Z,81.83
2022-09-15T08:38:17.477Z,79.25
2022-09-15T08:40:48.679Z,78.83
2022-09-15T08:43:28.847Z,77.43
2022-09-15T08:46:05.666Z,77.77
2022-09-15T08:48:42.455Z,78.80
2022-09-15T08:51:21.476Z,80.04
2022-09-15T08:53:58.007Z,79.72
2022-09-15T08:56:30.661Z,81.56
2022-09-15T08:59:01.466Z,81.66
2022-09-15T09:02:01.840Z,81.14
2022-09-15T09:05:15.159Z,80.58
2022-09-15T09:08:23.667Z,76.89
2022-09-15T09:11:00.570Z,74.83
2022-09-15T09:13:39.248Z,74.29
2022-09-15T09:16:37.682Z,74.42
2022-09-15T09:19:36.256Z,75.54
2022-09-15T09:22:11.868Z,74.63
2022-09-15T09:24:46.589Z,74.46
2022-09-15T09:27:18.668Z,74.66
2022-09-15T09:29:50.728Z,74.49
2022-09-15T09:32:24.848Z,72.72
2022-09-15T09:35:03.250Z,72.92
2022-09-15T09:37:34.657Z,70.90
2022-09-15T09:40:06.782Z,72.58
2022-09-15T09:42:38.206Z,70.88
2022-09-15T09:45:09.168Z,70.20
2022-09-15T09:47:40.908Z,69.55
2022-09-15T09:50:39.227Z,67.87
2022-09-15T09:53:33.998Z,67.60
2022-09-15T09:56:24.809Z,68.12
2022-09-15T09:58:56.178Z,68.59
2022-09-15T10:01:28.100Z,70.04
2022-09-15T10:04:19.171Z,68.67
2022-09-15T10:06:49.599Z,69.87
2022-09-15T10:09:21.291Z,66.22
2022-09-15T10:11:56.311Z,68.83
2022-09-15T10:14:31.287Z,67.62
2022-09-15T10:17:03.103Z,66.12
2022-09-15T10:19:37.007Z,65.53
2022-09-15T10:22:07.467Z,66.42
2022-09-15T10:24:41.336Z,63.22
2022-09-15T10:27:33.568Z,63.76
2022-09-15T10:30:20.079Z,61.97
2022-09-15T10:32:50.132Z,63.60
2022-09-15T10:35:22.098Z,62.48
2022-09-15T10:38:06.278Z,62.41
2022-09-15T10:40:44.020Z,63.79
2022-09-15T10:43:48.099Z,61.04
2022-09-15T10:46:29.118Z,61.51
2022-09-15T10:49:16.908Z,60.85
2022-09-15T10:51:59.894Z,63.04
2022-09-15T10:54:53.548Z,62.32
2022-09-15T10:57:40.180Z,60.25
2022-09-15T11:00:15.388Z,58.58
2022-09-15T11:03:13.663Z,60.10
2022-09-15T11:06:04.439Z,60.70
2022-09-15T11:08:57.338Z,60.73
2022-09-15T11:11:36.860Z,61.70
2022-09-15T11:14:22.910Z,58.57
2022-09-15T11:17:05.437Z,59.07
2022-09-15T11:19:53.798Z,60.07
2022-09-15T11:22:29.746Z,62.23
2022-09-15T11:25:04.669Z,62.33
2022-09-15T11:27:41.638Z,60.34
2022-09-15T11:30:20.384Z,59.99
2022-09-15T11:32:58.190Z,60.92
2022-09-15T11:35:44.346Z,59.01
2022-09-15T11:38:30.868Z,59.29
2022-09-15T11:41:22.469Z,60.23
2022-09-15T11:44:16.063Z,63.15
2022-09-15T11:46:58.958Z,64.63
2022-09-15T11:49:33.058Z,68.52
2022-09-15T11:52:10.339Z,70.55
2022-09-15T11:54:47.516Z,72.09
2022-09-15T11:57:23.192Z,73.64
2022-09-15T11:59:59.416Z,77.61
2022-09-15T12:02:34.668Z,75.17
2022-09-15T12:05:16.656Z,70.82
2022-09-15T12:07:53.349Z,70.40
2022-09-15T12:10:28.515Z,67.79
2022-09-15T12:13:02.766Z,64.60
2022-09-15T12:15:33.708Z,63.36
2022-09-15T12:18:39.849Z,63.00
2022-09-15T12:21:19.946Z,64.51
2022-09-15T12:23:59.756Z,64.19
2022-09-15T12:26:30.527Z,64.42
2022-09-15T12:29:03.306Z,59.35
2022-09-15T12:31:36.091Z,60.37
2022-09-15T12:34:28.726Z,59.89
2022-09-15T12:37:10.618Z,59.83
2022-09-15T12:39:43.338Z,59.74
2022-09-15T12:42:20.626Z,60.58
2022-09-15T12:44:55.318Z,59.55
2022-09-15T12:47:33.367Z,58.94
2022-09-15T12:50:09.000Z,59.74
2022-09-15T12:52:49.686Z,59.21
2022-09-15T12:55:25.613Z,59.88
2022-09-15T12:58:00.390Z,58.62
2022-09-15T13:00:42.344Z,60.62
2022-09-15T13:03:51.180Z,61.64
2022-09-15T13:06:26.086Z,62.11
2022-09-15T13:09:27.649Z,62.67
2022-09-15T13:11:58.912Z,62.58
2022-09-15T13:14:38.320Z,61.79
2022-09-15T13:17:15.071Z,63.12
2022-09-15T13:19:48.881Z,63.00
2022-09-15T13:22:30.226Z,63.59
2022-09-15T13:25:06.501Z,64.72
2022-09-15T13:27:39.957Z,62.48
2022-09-15T13:30:27.129Z,59.81
2022-09-15T13:33:05.616Z,61.35
2022-09-15T13:35:48.098Z,61.63
2022-09-15T13:38:57.019Z,61.64
2022-09-15T13:41:46.849Z,63.18
2022-09-15T13:44:45.209Z,63.75
2022-09-15T13:47:31.773Z,64.81
2022-09-15T13:50:13.448Z,66.00
2022-09-15T13:52:56.576Z,66.26
2022-09-15T13:55:29.187Z,64.93
2022-09-15T14:01:04.899Z,65.27
2022-09-15T14:03:42.464Z,66.14
2022-09-15T14:06:19.672Z,67.78
2022-09-15T14:08:53.210Z,67.17
2022-09-15T14:11:28.400Z,67.51
2022-09-15T14:14:01.036Z,68.42
2022-09-15T14:16:35.207Z,66.80
2022-09-15T14:19:23.407Z,67.43
2022-09-15T14:21:58.341Z,67.13
2022-09-15T14:24:31.166Z,66.25
2022-09-15T14:27:09.360Z,66.71
2022-09-15T14:29:44.616Z,66.87
2022-09-15T14:32:17.388Z,67.70
2022-09-15T14:37:27.934Z,64.83
2022-09-15T14:39:59.958Z,62.72
2022-09-15T14:42:32.912Z,61.98
2022-09-15T14:48:09.727Z,61.17
2022-09-15T14:50:39.737Z,60.51
2022-09-15T14:53:13.749Z,61.10
2022-09-15T14:55:52.466Z,62.45
2022-09-15T14:58:28.878Z,62.72
2022-09-15T15:01:04.974Z,62.39
2022-09-15T15:03:40.096Z,63.33
2022-09-15T15:06:28.853Z,63.18
2022-09-15T15:09:04.238Z,62.71
2022-09-15T15:11:36.668Z,63.84
2022-09-15T15:14:09.703Z,63.30
2022-09-15T15:16:53.739Z,60.20
2022-09-15T15:19:34.676Z,61.68
2022-09-15T15:22:18.955Z,61.46
2022-09-15T15:24:53.057Z,60.13
2022-09-15T15:27:45.136Z,61.29
2022-09-15T15:30:34.355Z,59.45
2022-09-15T15:33:08.065Z,59.73
2022-09-15T15:35:38.307Z,60.81
2022-09-15T15:38:16.026Z,59.32
2022-09-15T15:40:47.758Z,60.17
2022-09-15T15:43:25.416Z,59.33
2022-09-15T15:46:01.322Z,60.38
2022-09-15T15:48:37.855Z,59.08
2022-09-15T15:51:09.624Z,59.32
2022-09-15T15:53:40.434Z,58.90
2022-09-15T15:56:10.946Z,58.89
2022-09-15T15:58:41.026Z,59.40
2022-09-15T16:01:14.415Z,59.15
2022-09-15T16:03:46.126Z,60.08
2022-09-15T16:06:17.176Z,59.96
2022-09-15T16:08:47.994Z,60.86
2022-09-15T16:11:21.460Z,60.99
2022-09-15T16:13:54.797Z,61.45
2022-09-15T16:16:27.051Z,61.41
2022-09-15T16:18:59.104Z,61.13
2022-09-15T16:21:37.233Z,62.52
2022-09-15T16:24:08.905Z,62.14
2022-09-15T16:26:40.498Z,62.80
2022-09-15T16:29:11.373Z,63.99
2022-09-15T16:31:43.235Z,64.55
2022-09-15T16:34:19.725Z,64.33
2022-09-15T16:36:50.180Z,64.15
2022-09-15T16:39:20.467Z,64.56
2022-09-15T16:41:50.947Z,65.06
2022-09-15T16:44:22.249Z,65.23
2022-09-15T16:46:52.411Z,65.71
2022-09-15T16:49:24.437Z,66.60
2022-09-15T16:51:54.615Z,67.61
2022-09-15T16:54:25.037Z,68.33
2022-09-15T16:56:54.846Z,68.33
2022-09-15T16:59:25.725Z,68.83
2022-09-15T17:01:57.529Z,68.56
2022-09-15T17:04:29.102Z,68.83
2022-09-15T17:06:59.466Z,69.55
2022-09-15T17:09:29.846Z,70.10
2022-09-15T17:12:00.531Z,70.25
2022-09-15T17:14:31.037Z,70.63
2022-09-15T17:17:01.474Z,70.73
2022-09-15T17:19:33.345Z,71.02
2022-09-15T17:22:04.694Z,70.86
2022-09-15T17:24:35.304Z,70.78
2022-09-15T17:27:05.885Z,71.94
2022-09-15T17:29:38.648Z,71.93
2022-09-15T17:32:10.416Z,72.27
2022-09-15T17:34:42.071Z,72.43
2022-09-15T17:37:13.275Z,72.97
2022-09-15T17:39:43.596Z,73.88
2022-09-15T17:42:13.826Z,74.24
2022-09-15T17:44:43.835Z,73.79
2022-09-15T17:47:14.796Z,75.01
2022-09-15T17:49:47.158Z,74.46
2022-09-15T17:52:18.177Z,75.21
2022-09-15T17:54:51.375Z,74.62
2022-09-15T17:57:26.315Z,73.95
2022-09-15T17:59:56.447Z,73.85
2022-09-15T18:02:26.659Z,74.26
2022-09-15T18:04:58.576Z,73.86
2022-09-15T18:07:29.634Z,74.87
2022-09-15T18:10:00.166Z,74.65
2022-09-15T18:12:30.681Z,75.72
2022-09-15T18:15:00.630Z,75.91
2022-09-15T18:17:30.741Z,76.37
2022-09-15T18:20:03.682Z,77.19
2022-09-15T18:22:36.746Z,77.46
2022-09-15T18:25:25.232Z,77.65
2022-09-15T18:27:56.602Z,77.72
2022-09-15T18:30:29.290Z,78.52
2022-09-15T18:33:00.622Z,80.42
2022-09-15T18:35:32.552Z,80.01
2022-09-15T18:38:03.832Z,81.31
2022-09-15T18:40:35.652Z,80.52
2022-09-15T18:43:05.873Z,80.94
2022-09-15T18:45:36.934Z,82.75
2022-09-15T18:48:12.010Z,81.67
2022-09-15T18:50:46.752Z,83.11
2022-09-15T18:53:20.357Z,83.42
2022-09-15T18:55:53.639Z,84.32
2022-09-15T18:58:25.190Z,84.58
2022-09-15T19:01:00.462Z,83.84
2022-09-15T19:03:30.543Z,83.46
2022-09-15T19:06:06.363Z,83.83
2022-09-15T19:08:37.150Z,85.18
2022-09-15T19:11:07.723Z,86.09
2022-09-15T19:13:37.601Z,87.15
2022-09-15T19:16:08.849Z,87.65
2022-09-15T19:18:39.171Z,87.72
2022-09-15T19:21:13.203Z,88.52
2022-09-15T19:23:43.490Z,88.75
2022-09-15T19:26:17.193Z,87.82
2022-09-15T19:28:51.852Z,88.38
2022-09-15T19:31:22.095Z,87.39
2022-09-15T19:33:52.858Z,88.58
2022-09-15T19:36:28.288Z,88.33
2022-09-15T19:39:00.580Z,87.74
2022-09-15T19:41:30.767Z,89.49
2022-09-15T19:44:09.448Z,89.09
2022-09-15T19:47:03.753Z,89.35
2022-09-15T19:49:37.687Z,89.90
2022-09-15T19:52:11.192Z,90.85
2022-09-15T19:54:41.560Z,90.55
2022-09-15T19:57:12.779Z,90.84
2022-09-15T19:59:45.002Z,91.47
2022-09-15T20:02:15.077Z,91.90
2022-09-15T20:04:46.118Z,93.06
2022-09-15T20:07:17.668Z,92.39
2022-09-15T20:09:48.197Z,92.96
2022-09-15T20:12:18.309Z,92.68
2022-09-15T20:14:48.382Z,93.20
2022-09-15T20:17:18.727Z,92.24
2022-09-15T20:19:48.687Z,93.05
2022-09-15T20:22:21.158Z,94.75
2022-09-15T20:24:51.455Z,94.22
2022-09-15T20:27:21.871Z,95.26
2022-09-15T20:29:52.297Z,95.16
2022-09-15T20:32:28.031Z,94.78
2022-09-15T20:34:59.233Z,95.42
2022-09-15T20:37:35.264Z,95.65
2022-09-15T20:40:09.614Z,95.40
2022-09-15T20:42:40.027Z,97.06
2022-09-15T20:45:12.167Z,96.70
2022-09-15T20:47:42.469Z,96.58
2022-09-15T20:50:12.598Z,95.96
2022-09-15T20:52:44.827Z,94.73
2022-09-15T20:55:14.577Z,94.26
2022-09-15T20:57:44.858Z,94.38
2022-09-15T21:00:16.117Z,93.26
2022-09-15T21:02:52.215Z,92.69
2022-09-15T21:05:22.327Z,93.10
2022-09-15T21:07:54.087Z,93.76
2022-09-15T21:10:25.308Z,91.71
2022-09-15T21:12:56.088Z,91.81
2022-09-15T21:15:26.976Z,92.17
2022-09-15T21:17:58.494Z,91.09
2022-09-15T21:20:28.907Z,89.80
2022-09-15T21:23:00.697Z,89.42
2022-09-15T21:25:30.326Z,89.79
2022-09-15T21:28:00.546Z,91.21
2022-09-15T21:30:30.768Z,90.94
2022-09-15T21:33:01.456Z,90.72
2022-09-15T21:35:32.990Z,91.25
2022-09-15T21:38:04.800Z,91.43
2022-09-15T21:40:35.369Z,92.07
2022-09-15T21:43:05.578Z,93.62
2022-09-15T21:45:35.765Z,93.17
2022-09-15T21:48:07.475Z,92.67
2022-09-15T21:50:37.554Z,93.75
2022-09-15T21:53:09.296Z,92.36
2022-09-15T21:55:40.496Z,92.28
2022-09-15T21:58:10.825Z,91.33
2022-09-15T22:00:41.681Z,92.68
2022-09-15T22:03:12.455Z,92.18
2022-09-15T22:05:42.949Z,91.44
2022-09-15T22:08:16.621Z,92.44
2022-09-15T22:10:47.051Z,91.80
2022-09-15T22:13:17.361Z,90.43
2022-09-15T22:15:47.491Z,90.42
2022-09-15T22:18:17.549Z,91.71
2022-09-15T22:20:47.929Z,90.88
2022-09-15T22:23:19.629Z,90.95
2022-09-15T22:25:49.899Z,91.81
2022-09-15T22:28:19.909Z,91.82
2022-09-15T22:30:50.129Z,92.69
2022-09-15T22:33:21.199Z,92.44
2022-09-15T22:35:51.310Z,93.36
2022-09-15T22:38:23.377Z,93.21
2022-09-15T22:40:53.712Z,93.29
2022-09-15T22:43:24.189Z,93.66
2022-09-15T22:45:54.379Z,95.05
2022-09-15T22:48:24.519Z,94.13
2022-09-15T22:50:54.797Z,94.09
2022-09-15T22:53:26.492Z,94.38
2022-09-15T22:56:08.096Z,94.31
2022-09-15T22:58:39.408Z,94.90
2022-09-15T23:01:13.678Z,95.06
2022-09-15T23:03:53.049Z,93.87
2022-09-15T23:06:23.814Z,94.83
2022-09-15T23:08:57.189Z,95.47
2022-09-15T23:11:29.354Z,94.98
2022-09-15T23:13:59.661Z,95.01
2022-09-15T23:16:31.263Z,94.73
2022-09-15T23:19:02.809Z,95.82
2022-09-15T23:21:32.822Z,94.92
2022-09-15T23:24:05.130Z,93.95
2022-09-15T23:26:35.226Z,94.24
2022-09-15T23:29:05.215Z,93.73
2022-09-15T23:31:35.202Z,93.96
2022-09-15T23:34:06.268Z,93.79
2022-09-15T23:36:36.489Z,94.28
2022-09-15T23:39:08.317Z,94.11
2022-09-15T23:41:39.446Z,94.58
2022-09-15T23:44:09.468Z,95.72
2022-09-15T23:46:39.439Z,95.12
2022-09-15T23:49:09.430Z,96.04
2022-09-15T23:51:39.544Z,96.57
2022-09-15T23:54:11.629Z,95.89
2022-09-15T23:56:41.867Z,96.50
2022-09-15T23:59:11.906Z,96.48
